sensor_id;sensor_type;location;lat;lon;timestamp;P1;durP1;ratioP1;P2;durP2;ratioP2
10446;SDS011;5271;44.422;26.092;2023-02-25T00:00:32;1.00;;;1.00;;
10446;SDS011;5271;44.422;26.092;2023-02-25T00:03:00;1.10;;;1.10;;
10446;SDS011;5271;44.422;26.092;2023-02-25T00:05:27;1.10;;;1.10;;
10446;SDS011;5271;44.422;26.092;2023-02-25T00:07:54;1.00;;;1.00;;
10446;SDS011;5271;44.422;26.092;2023-02-25T00:10:21;1.10;;;1.10;;
10446;SDS011;5271;44.422;26.092;2023-02-25T00:12:48;1.10;;;1.10;;
10446;SDS011;5271;44.422;26.092;2023-02-25T00:15:15;1.10;;;1.10;;
10446;SDS011;5271;44.422;26.092;2023-02-25T00:17:42;1.10;;;1.10;;
10446;SDS011;5271;44.422;26.092;2023-02-25T00:20:11;1.10;;;1.10;;
10446;SDS011;5271;44.422;26.092;2023-02-25T00:22:38;1.10;;;1.10;;
10446;SDS011;5271;44.422;26.092;2023-02-25T00:25:05;1.07;;;1.07;;
10446;SDS011;5271;44.422;26.092;2023-02-25T00:27:34;1.10;;;1.10;;
10446;SDS011;5271;44.422;26.092;2023-02-25T00:30:01;1.10;;;1.10;;
10446;SDS011;5271;44.422;26.092;2023-02-25T00:32:29;1.10;;;1.10;;
10446;SDS011;5271;44.422;26.092;2023-02-25T00:34:56;1.10;;;1.10;;
10446;SDS011;5271;44.422;26.092;2023-02-25T00:37:24;1.10;;;1.10;;
10446;SDS011;5271;44.422;26.092;2023-02-25T00:39:51;1.10;;;1.10;;
10446;SDS011;5271;44.422;26.092;2023-02-25T00:42:18;1.10;;;1.10;;
10446;SDS011;5271;44.422;26.092;2023-02-25T00:44:46;1.10;;;1.10;;
10446;SDS011;5271;44.422;26.092;2023-02-25T00:47:14;1.03;;;1.03;;
10446;SDS011;5271;44.422;26.092;2023-02-25T00:49:43;1.00;;;1.00;;
10446;SDS011;5271;44.422;26.092;2023-02-25T00:52:11;1.10;;;1.10;;
10446;SDS011;5271;44.422;26.092;2023-02-25T00:54:39;1.07;;;1.07;;
10446;SDS011;5271;44.422;26.092;2023-02-25T00:57:07;1.10;;;1.10;;
10446;SDS011;5271;44.422;26.092;2023-02-25T00:59:34;1.10;;;1.10;;
10446;SDS011;5271;44.422;26.092;2023-02-25T01:02:01;1.10;;;1.10;;
10446;SDS011;5271;44.422;26.092;2023-02-25T01:04:27;1.10;;;1.10;;
10446;SDS011;5271;44.422;26.092;2023-02-25T01:06:54;1.07;;;1.07;;
10446;SDS011;5271;44.422;26.092;2023-02-25T01:09:21;1.20;;;1.20;;
10446;SDS011;5271;44.422;26.092;2023-02-25T01:11:50;1.10;;;1.10;;
10446;SDS011;5271;44.422;26.092;2023-02-25T01:14:17;1.10;;;1.10;;
10446;SDS011;5271;44.422;26.092;2023-02-25T01:16:45;1.10;;;1.10;;
10446;SDS011;5271;44.422;26.092;2023-02-25T01:19:14;1.10;;;1.10;;
10446;SDS011;5271;44.422;26.092;2023-02-25T01:21:43;1.10;;;1.10;;
10446;SDS011;5271;44.422;26.092;2023-02-25T01:24:12;1.10;;;1.10;;
10446;SDS011;5271;44.422;26.092;2023-02-25T01:26:40;1.20;;;1.20;;
10446;SDS011;5271;44.422;26.092;2023-02-25T01:29:10;1.20;;;1.20;;
10446;SDS011;5271;44.422;26.092;2023-02-25T01:31:38;1.10;;;1.10;;
10446;SDS011;5271;44.422;26.092;2023-02-25T01:34:06;1.20;;;1.20;;
10446;SDS011;5271;44.422;26.092;2023-02-25T01:36:35;1.17;;;1.17;;
10446;SDS011;5271;44.422;26.092;2023-02-25T01:39:02;1.17;;;1.17;;
10446;SDS011;5271;44.422;26.092;2023-02-25T01:41:30;1.20;;;1.20;;
10446;SDS011;5271;44.422;26.092;2023-02-25T01:44:02;1.20;;;1.20;;
10446;SDS011;5271;44.422;26.092;2023-02-25T01:46:32;1.20;;;1.20;;
10446;SDS011;5271;44.422;26.092;2023-02-25T01:48:59;1.20;;;1.20;;
10446;SDS011;5271;44.422;26.092;2023-02-25T01:51:27;1.20;;;1.20;;
10446;SDS011;5271;44.422;26.092;2023-02-25T01:53:56;1.20;;;1.20;;
10446;SDS011;5271;44.422;26.092;2023-02-25T01:56:26;1.10;;;1.10;;
10446;SDS011;5271;44.422;26.092;2023-02-25T01:58:55;1.20;;;1.20;;
10446;SDS011;5271;44.422;26.092;2023-02-25T02:01:24;1.20;;;1.20;;
10446;SDS011;5271;44.422;26.092;2023-02-25T02:03:55;1.30;;;1.30;;
10446;SDS011;5271;44.422;26.092;2023-02-25T02:06:23;1.20;;;1.20;;
10446;SDS011;5271;44.422;26.092;2023-02-25T02:08:54;1.20;;;1.20;;
10446;SDS011;5271;44.422;26.092;2023-02-25T02:11:21;1.30;;;1.30;;
10446;SDS011;5271;44.422;26.092;2023-02-25T02:13:49;1.30;;;1.30;;
10446;SDS011;5271;44.422;26.092;2023-02-25T02:16:25;1.20;;;1.20;;
10446;SDS011;5271;44.422;26.092;2023-02-25T02:19:08;1.30;;;1.30;;
10446;SDS011;5271;44.422;26.092;2023-02-25T02:21:49;1.10;;;1.10;;
10446;SDS011;5271;44.422;26.092;2023-02-25T02:24:39;1.10;;;1.10;;
10446;SDS011;5271;44.422;26.092;2023-02-25T02:27:27;1.20;;;1.20;;
10446;SDS011;5271;44.422;26.092;2023-02-25T02:30:15;1.20;;;1.20;;
10446;SDS011;5271;44.422;26.092;2023-02-25T02:32:54;1.10;;;1.10;;
10446;SDS011;5271;44.422;26.092;2023-02-25T02:35:27;1.20;;;1.20;;
10446;SDS011;5271;44.422;26.092;2023-02-25T02:38:05;1.30;;;1.30;;
10446;SDS011;5271;44.422;26.092;2023-02-25T02:40:40;1.20;;;1.20;;
10446;SDS011;5271;44.422;26.092;2023-02-25T02:43:22;1.30;;;1.30;;
10446;SDS011;5271;44.422;26.092;2023-02-25T02:46:01;1.20;;;1.20;;
10446;SDS011;5271;44.422;26.092;2023-02-25T02:48:35;1.30;;;1.30;;
10446;SDS011;5271;44.422;26.092;2023-02-25T02:51:08;1.37;;;1.37;;
10446;SDS011;5271;44.422;26.092;2023-02-25T02:53:40;1.37;;;1.37;;
10446;SDS011;5271;44.422;26.092;2023-02-25T02:56:11;1.20;;;1.20;;
10446;SDS011;5271;44.422;26.092;2023-02-25T02:58:40;1.30;;;1.30;;
10446;SDS011;5271;44.422;26.092;2023-02-25T03:01:11;1.37;;;1.37;;
10446;SDS011;5271;44.422;26.092;2023-02-25T03:03:42;1.20;;;1.20;;
10446;SDS011;5271;44.422;26.092;2023-02-25T03:06:13;1.30;;;1.30;;
10446;SDS011;5271;44.422;26.092;2023-02-25T03:08:43;1.23;;;1.23;;
10446;SDS011;5271;44.422;26.092;2023-02-25T03:11:14;1.30;;;1.30;;
10446;SDS011;5271;44.422;26.092;2023-02-25T03:13:41;1.30;;;1.30;;
10446;SDS011;5271;44.422;26.092;2023-02-25T03:16:09;1.20;;;1.20;;
10446;SDS011;5271;44.422;26.092;2023-02-25T03:18:40;1.30;;;1.30;;
10446;SDS011;5271;44.422;26.092;2023-02-25T03:21:17;1.20;;;1.20;;
10446;SDS011;5271;44.422;26.092;2023-02-25T03:23:47;1.20;;;1.20;;
10446;SDS011;5271;44.422;26.092;2023-02-25T03:26:17;1.20;;;1.20;;
10446;SDS011;5271;44.422;26.092;2023-02-25T03:28:48;1.30;;;1.30;;
10446;SDS011;5271;44.422;26.092;2023-02-25T03:31:16;1.30;;;1.30;;
10446;SDS011;5271;44.422;26.092;2023-02-25T03:33:49;1.30;;;1.30;;
10446;SDS011;5271;44.422;26.092;2023-02-25T03:36:20;1.30;;;1.30;;
10446;SDS011;5271;44.422;26.092;2023-02-25T03:38:51;1.30;;;1.30;;
10446;SDS011;5271;44.422;26.092;2023-02-25T03:41:23;1.30;;;1.30;;
10446;SDS011;5271;44.422;26.092;2023-02-25T03:43:54;1.30;;;1.30;;
10446;SDS011;5271;44.422;26.092;2023-02-25T03:46:22;1.33;;;1.33;;
10446;SDS011;5271;44.422;26.092;2023-02-25T03:48:53;1.20;;;1.20;;
10446;SDS011;5271;44.422;26.092;2023-02-25T03:51:23;1.10;;;1.10;;
10446;SDS011;5271;44.422;26.092;2023-02-25T03:53:54;1.40;;;1.40;;
10446;SDS011;5271;44.422;26.092;2023-02-25T03:56:21;1.30;;;1.30;;
10446;SDS011;5271;44.422;26.092;2023-02-25T03:58:48;1.30;;;1.30;;
10446;SDS011;5271;44.422;26.092;2023-02-25T04:01:15;1.40;;;1.40;;
10446;SDS011;5271;44.422;26.092;2023-02-25T04:03:46;1.20;;;1.20;;
10446;SDS011;5271;44.422;26.092;2023-02-25T04:06:14;1.23;;;1.23;;
10446;SDS011;5271;44.422;26.092;2023-02-25T04:08:46;1.30;;;1.30;;
10446;SDS011;5271;44.422;26.092;2023-02-25T04:11:13;1.30;;;1.30;;
10446;SDS011;5271;44.422;26.092;2023-02-25T04:13:41;1.40;;;1.40;;
10446;SDS011;5271;44.422;26.092;2023-02-25T04:16:08;1.30;;;1.30;;
10446;SDS011;5271;44.422;26.092;2023-02-25T04:18:34;1.20;;;1.20;;
10446;SDS011;5271;44.422;26.092;2023-02-25T04:21:03;1.30;;;1.30;;
10446;SDS011;5271;44.422;26.092;2023-02-25T04:23:31;1.30;;;1.30;;
10446;SDS011;5271;44.422;26.092;2023-02-25T04:25:59;1.30;;;1.30;;
10446;SDS011;5271;44.422;26.092;2023-02-25T04:28:26;1.27;;;1.27;;
10446;SDS011;5271;44.422;26.092;2023-02-25T04:30:53;1.30;;;1.30;;
10446;SDS011;5271;44.422;26.092;2023-02-25T04:33:19;1.30;;;1.30;;
10446;SDS011;5271;44.422;26.092;2023-02-25T04:35:46;1.30;;;1.30;;
10446;SDS011;5271;44.422;26.092;2023-02-25T04:38:13;1.30;;;1.30;;
10446;SDS011;5271;44.422;26.092;2023-02-25T04:40:41;1.30;;;1.30;;
10446;SDS011;5271;44.422;26.092;2023-02-25T04:43:08;1.30;;;1.30;;
10446;SDS011;5271;44.422;26.092;2023-02-25T04:45:35;1.30;;;1.30;;
10446;SDS011;5271;44.422;26.092;2023-02-25T04:48:02;1.30;;;1.30;;
10446;SDS011;5271;44.422;26.092;2023-02-25T04:50:29;1.30;;;1.30;;
10446;SDS011;5271;44.422;26.092;2023-02-25T04:52:58;1.30;;;1.30;;
10446;SDS011;5271;44.422;26.092;2023-02-25T04:55:26;1.33;;;1.33;;
10446;SDS011;5271;44.422;26.092;2023-02-25T04:57:54;1.40;;;1.40;;
10446;SDS011;5271;44.422;26.092;2023-02-25T05:00:21;1.30;;;1.30;;
10446;SDS011;5271;44.422;26.092;2023-02-25T05:02:49;1.30;;;1.30;;
10446;SDS011;5271;44.422;26.092;2023-02-25T05:05:16;1.30;;;1.30;;
10446;SDS011;5271;44.422;26.092;2023-02-25T05:07:43;1.30;;;1.30;;
10446;SDS011;5271;44.422;26.092;2023-02-25T05:10:11;1.20;;;1.20;;
10446;SDS011;5271;44.422;26.092;2023-02-25T05:12:39;1.30;;;1.30;;
10446;SDS011;5271;44.422;26.092;2023-02-25T05:15:08;1.40;;;1.40;;
10446;SDS011;5271;44.422;26.092;2023-02-25T05:17:36;1.30;;;1.30;;
10446;SDS011;5271;44.422;26.092;2023-02-25T05:20:04;1.30;;;1.30;;
10446;SDS011;5271;44.422;26.092;2023-02-25T05:22:35;1.27;;;1.27;;
10446;SDS011;5271;44.422;26.092;2023-02-25T05:25:02;1.30;;;1.30;;
10446;SDS011;5271;44.422;26.092;2023-02-25T05:27:30;1.30;;;1.30;;
10446;SDS011;5271;44.422;26.092;2023-02-25T05:29:57;1.30;;;1.30;;
10446;SDS011;5271;44.422;26.092;2023-02-25T05:32:26;1.30;;;1.30;;
10446;SDS011;5271;44.422;26.092;2023-02-25T05:34:53;1.20;;;1.20;;
10446;SDS011;5271;44.422;26.092;2023-02-25T05:37:19;1.30;;;1.30;;
10446;SDS011;5271;44.422;26.092;2023-02-25T05:39:46;1.30;;;1.30;;
10446;SDS011;5271;44.422;26.092;2023-02-25T05:42:13;1.20;;;1.20;;
10446;SDS011;5271;44.422;26.092;2023-02-25T05:44:40;1.30;;;1.30;;
10446;SDS011;5271;44.422;26.092;2023-02-25T05:47:07;1.30;;;1.30;;
10446;SDS011;5271;44.422;26.092;2023-02-25T05:49:35;1.40;;;1.40;;
10446;SDS011;5271;44.422;26.092;2023-02-25T05:52:02;1.30;;;1.30;;
10446;SDS011;5271;44.422;26.092;2023-02-25T05:54:29;1.30;;;1.30;;
10446;SDS011;5271;44.422;26.092;2023-02-25T05:56:55;1.40;;;1.40;;
10446;SDS011;5271;44.422;26.092;2023-02-25T05:59:22;1.40;;;1.40;;
10446;SDS011;5271;44.422;26.092;2023-02-25T06:01:49;1.40;;;1.40;;
10446;SDS011;5271;44.422;26.092;2023-02-25T06:04:16;1.40;;;1.40;;
10446;SDS011;5271;44.422;26.092;2023-02-25T06:06:44;1.47;;;1.47;;
10446;SDS011;5271;44.422;26.092;2023-02-25T06:09:14;1.40;;;1.40;;
10446;SDS011;5271;44.422;26.092;2023-02-25T06:11:43;1.50;;;1.50;;
10446;SDS011;5271;44.422;26.092;2023-02-25T06:14:11;1.40;;;1.40;;
10446;SDS011;5271;44.422;26.092;2023-02-25T06:16:39;1.40;;;1.40;;
10446;SDS011;5271;44.422;26.092;2023-02-25T06:19:07;1.50;;;1.50;;
10446;SDS011;5271;44.422;26.092;2023-02-25T06:21:35;1.43;;;1.43;;
10446;SDS011;5271;44.422;26.092;2023-02-25T06:24:04;1.40;;;1.40;;
10446;SDS011;5271;44.422;26.092;2023-02-25T06:26:31;1.40;;;1.40;;
10446;SDS011;5271;44.422;26.092;2023-02-25T06:28:59;1.40;;;1.40;;
10446;SDS011;5271;44.422;26.092;2023-02-25T06:31:26;1.40;;;1.40;;
10446;SDS011;5271;44.422;26.092;2023-02-25T06:33:53;1.40;;;1.40;;
10446;SDS011;5271;44.422;26.092;2023-02-25T06:36:20;1.40;;;1.40;;
10446;SDS011;5271;44.422;26.092;2023-02-25T06:38:46;1.40;;;1.40;;
10446;SDS011;5271;44.422;26.092;2023-02-25T06:41:16;1.50;;;1.50;;
10446;SDS011;5271;44.422;26.092;2023-02-25T06:43:45;1.50;;;1.50;;
10446;SDS011;5271;44.422;26.092;2023-02-25T06:46:16;1.50;;;1.50;;
10446;SDS011;5271;44.422;26.092;2023-02-25T06:48:44;1.40;;;1.40;;
10446;SDS011;5271;44.422;26.092;2023-02-25T06:51:11;1.50;;;1.50;;
10446;SDS011;5271;44.422;26.092;2023-02-25T06:53:39;1.50;;;1.50;;
10446;SDS011;5271;44.422;26.092;2023-02-25T06:56:07;1.50;;;1.50;;
10446;SDS011;5271;44.422;26.092;2023-02-25T06:58:38;1.50;;;1.50;;
10446;SDS011;5271;44.422;26.092;2023-02-25T07:01:05;1.50;;;1.50;;
10446;SDS011;5271;44.422;26.092;2023-02-25T07:03:32;1.60;;;1.60;;
10446;SDS011;5271;44.422;26.092;2023-02-25T07:05:59;1.57;;;1.57;;
10446;SDS011;5271;44.422;26.092;2023-02-25T07:08:26;1.60;;;1.60;;
10446;SDS011;5271;44.422;26.092;2023-02-25T07:10:53;1.50;;;1.50;;
10446;SDS011;5271;44.422;26.092;2023-02-25T07:13:20;1.50;;;1.50;;
10446;SDS011;5271;44.422;26.092;2023-02-25T07:15:48;1.53;;;1.53;;
10446;SDS011;5271;44.422;26.092;2023-02-25T07:18:15;1.50;;;1.50;;
10446;SDS011;5271;44.422;26.092;2023-02-25T07:20:42;1.50;;;1.50;;
10446;SDS011;5271;44.422;26.092;2023-02-25T07:23:09;1.50;;;1.50;;
10446;SDS011;5271;44.422;26.092;2023-02-25T07:25:36;1.50;;;1.50;;
10446;SDS011;5271;44.422;26.092;2023-02-25T07:28:03;1.40;;;1.40;;
10446;SDS011;5271;44.422;26.092;2023-02-25T07:30:30;1.40;;;1.40;;
10446;SDS011;5271;44.422;26.092;2023-02-25T07:32:59;1.43;;;1.43;;
10446;SDS011;5271;44.422;26.092;2023-02-25T07:35:26;1.30;;;1.30;;
10446;SDS011;5271;44.422;26.092;2023-02-25T07:37:53;1.40;;;1.40;;
10446;SDS011;5271;44.422;26.092;2023-02-25T07:40:20;1.37;;;1.37;;
10446;SDS011;5271;44.422;26.092;2023-02-25T07:42:46;1.40;;;1.40;;
10446;SDS011;5271;44.422;26.092;2023-02-25T07:45:13;1.30;;;1.30;;
10446;SDS011;5271;44.422;26.092;2023-02-25T07:47:40;1.40;;;1.40;;
10446;SDS011;5271;44.422;26.092;2023-02-25T07:50:09;1.30;;;1.30;;
10446;SDS011;5271;44.422;26.092;2023-02-25T07:52:37;1.40;;;1.40;;
10446;SDS011;5271;44.422;26.092;2023-02-25T07:55:04;1.30;;;1.30;;
10446;SDS011;5271;44.422;26.092;2023-02-25T07:57:32;1.30;;;1.30;;
10446;SDS011;5271;44.422;26.092;2023-02-25T07:59:59;1.27;;;1.27;;
10446;SDS011;5271;44.422;26.092;2023-02-25T08:02:26;1.20;;;1.20;;
10446;SDS011;5271;44.422;26.092;2023-02-25T08:04:52;1.10;;;1.10;;
10446;SDS011;5271;44.422;26.092;2023-02-25T08:07:21;1.20;;;1.20;;
10446;SDS011;5271;44.422;26.092;2023-02-25T08:09:47;1.20;;;1.20;;
10446;SDS011;5271;44.422;26.092;2023-02-25T08:12:14;1.20;;;1.20;;
10446;SDS011;5271;44.422;26.092;2023-02-25T08:14:41;1.10;;;1.10;;
10446;SDS011;5271;44.422;26.092;2023-02-25T08:17:09;1.20;;;1.20;;
10446;SDS011;5271;44.422;26.092;2023-02-25T08:19:37;1.13;;;1.13;;
10446;SDS011;5271;44.422;26.092;2023-02-25T08:22:04;1.10;;;1.10;;
10446;SDS011;5271;44.422;26.092;2023-02-25T08:24:32;1.20;;;1.20;;
10446;SDS011;5271;44.422;26.092;2023-02-25T08:26:59;1.20;;;1.20;;
10446;SDS011;5271;44.422;26.092;2023-02-25T08:29:26;1.30;;;1.30;;
10446;SDS011;5271;44.422;26.092;2023-02-25T08:31:53;1.20;;;1.20;;
10446;SDS011;5271;44.422;26.092;2023-02-25T08:34:20;1.10;;;1.10;;
10446;SDS011;5271;44.422;26.092;2023-02-25T08:36:47;1.10;;;1.10;;
10446;SDS011;5271;44.422;26.092;2023-02-25T08:39:14;1.10;;;1.10;;
10446;SDS011;5271;44.422;26.092;2023-02-25T08:41:43;1.10;;;1.10;;
10446;SDS011;5271;44.422;26.092;2023-02-25T08:44:10;1.10;;;1.10;;
10446;SDS011;5271;44.422;26.092;2023-02-25T08:46:37;1.10;;;1.10;;
10446;SDS011;5271;44.422;26.092;2023-02-25T08:49:04;1.20;;;1.20;;
10446;SDS011;5271;44.422;26.092;2023-02-25T08:51:32;1.20;;;1.20;;
10446;SDS011;5271;44.422;26.092;2023-02-25T08:53:59;1.30;;;1.30;;
10446;SDS011;5271;44.422;26.092;2023-02-25T08:56:28;1.20;;;1.20;;
10446;SDS011;5271;44.422;26.092;2023-02-25T08:58:56;1.10;;;1.10;;
10446;SDS011;5271;44.422;26.092;2023-02-25T09:01:23;1.20;;;1.20;;
10446;SDS011;5271;44.422;26.092;2023-02-25T09:03:51;1.13;;;1.13;;
10446;SDS011;5271;44.422;26.092;2023-02-25T09:06:19;1.10;;;1.10;;
10446;SDS011;5271;44.422;26.092;2023-02-25T09:08:46;1.10;;;1.10;;
10446;SDS011;5271;44.422;26.092;2023-02-25T09:11:13;1.10;;;1.10;;
10446;SDS011;5271;44.422;26.092;2023-02-25T09:13:40;1.00;;;1.00;;
10446;SDS011;5271;44.422;26.092;2023-02-25T09:16:09;1.00;;;1.00;;
10446;SDS011;5271;44.422;26.092;2023-02-25T09:18:41;0.90;;;0.90;;
10446;SDS011;5271;44.422;26.092;2023-02-25T09:21:08;0.90;;;0.90;;
10446;SDS011;5271;44.422;26.092;2023-02-25T09:23:35;0.70;;;0.70;;
10446;SDS011;5271;44.422;26.092;2023-02-25T09:26:02;0.70;;;0.70;;
10446;SDS011;5271;44.422;26.092;2023-02-25T09:28:29;0.60;;;0.60;;
10446;SDS011;5271;44.422;26.092;2023-02-25T09:30:56;0.50;;;0.50;;
10446;SDS011;5271;44.422;26.092;2023-02-25T09:33:26;0.40;;;0.40;;
10446;SDS011;5271;44.422;26.092;2023-02-25T09:35:54;0.40;;;0.40;;
10446;SDS011;5271;44.422;26.092;2023-02-25T09:38:21;0.40;;;0.40;;
10446;SDS011;5271;44.422;26.092;2023-02-25T09:40:48;0.40;;;0.40;;
10446;SDS011;5271;44.422;26.092;2023-02-25T09:43:18;0.40;;;0.40;;
10446;SDS011;5271;44.422;26.092;2023-02-25T09:45:50;0.50;;;0.50;;
10446;SDS011;5271;44.422;26.092;2023-02-25T09:48:19;0.53;;;0.53;;
10446;SDS011;5271;44.422;26.092;2023-02-25T09:50:54;0.53;;;0.53;;
10446;SDS011;5271;44.422;26.092;2023-02-25T09:53:25;0.50;;;0.50;;
10446;SDS011;5271;44.422;26.092;2023-02-25T09:55:57;0.60;;;0.60;;
10446;SDS011;5271;44.422;26.092;2023-02-25T09:58:25;0.50;;;0.50;;
10446;SDS011;5271;44.422;26.092;2023-02-25T10:00:58;0.60;;;0.60;;
10446;SDS011;5271;44.422;26.092;2023-02-25T10:03:38;0.63;;;0.63;;
10446;SDS011;5271;44.422;26.092;2023-02-25T10:06:16;0.60;;;0.60;;
10446;SDS011;5271;44.422;26.092;2023-02-25T10:08:49;0.63;;;0.63;;
10446;SDS011;5271;44.422;26.092;2023-02-25T10:11:25;0.70;;;0.70;;
10446;SDS011;5271;44.422;26.092;2023-02-25T10:14:01;0.70;;;0.70;;
10446;SDS011;5271;44.422;26.092;2023-02-25T10:16:40;0.80;;;0.80;;
10446;SDS011;5271;44.422;26.092;2023-02-25T10:19:16;0.70;;;0.70;;
10446;SDS011;5271;44.422;26.092;2023-02-25T10:22:02;0.90;;;0.90;;
10446;SDS011;5271;44.422;26.092;2023-02-25T10:24:42;0.90;;;0.90;;
10446;SDS011;5271;44.422;26.092;2023-02-25T10:27:14;0.83;;;0.83;;
10446;SDS011;5271;44.422;26.092;2023-02-25T10:29:46;0.90;;;0.90;;
10446;SDS011;5271;44.422;26.092;2023-02-25T10:32:16;0.90;;;0.90;;
10446;SDS011;5271;44.422;26.092;2023-02-25T10:34:46;0.90;;;0.90;;
10446;SDS011;5271;44.422;26.092;2023-02-25T10:37:18;0.80;;;0.80;;
10446;SDS011;5271;44.422;26.092;2023-02-25T10:39:54;0.90;;;0.90;;
10446;SDS011;5271;44.422;26.092;2023-02-25T10:42:22;0.90;;;0.90;;
10446;SDS011;5271;44.422;26.092;2023-02-25T10:44:50;0.90;;;0.90;;
10446;SDS011;5271;44.422;26.092;2023-02-25T10:47:19;0.90;;;0.90;;
10446;SDS011;5271;44.422;26.092;2023-02-25T10:50:14;1.00;;;1.00;;
10446;SDS011;5271;44.422;26.092;2023-02-25T10:52:55;1.00;;;1.00;;
10446;SDS011;5271;44.422;26.092;2023-02-25T10:55:25;1.00;;;1.00;;
10446;SDS011;5271;44.422;26.092;2023-02-25T10:57:56;1.10;;;1.10;;
10446;SDS011;5271;44.422;26.092;2023-02-25T11:00:25;1.00;;;1.00;;
10446;SDS011;5271;44.422;26.092;2023-02-25T11:02:54;1.00;;;1.00;;
10446;SDS011;5271;44.422;26.092;2023-02-25T11:05:31;1.00;;;1.00;;
10446;SDS011;5271;44.422;26.092;2023-02-25T11:08:02;1.00;;;1.00;;
10446;SDS011;5271;44.422;26.092;2023-02-25T11:10:32;1.00;;;1.00;;
10446;SDS011;5271;44.422;26.092;2023-02-25T11:13:00;1.00;;;1.00;;
10446;SDS011;5271;44.422;26.092;2023-02-25T11:15:30;0.93;;;0.93;;
10446;SDS011;5271;44.422;26.092;2023-02-25T11:18:02;1.03;;;1.03;;
10446;SDS011;5271;44.422;26.092;2023-02-25T11:20:32;1.10;;;1.10;;
10446;SDS011;5271;44.422;26.092;2023-02-25T11:23:00;1.10;;;1.10;;
10446;SDS011;5271;44.422;26.092;2023-02-25T11:25:31;1.10;;;1.10;;
10446;SDS011;5271;44.422;26.092;2023-02-25T11:28:02;1.17;;;1.17;;
10446;SDS011;5271;44.422;26.092;2023-02-25T11:30:33;1.10;;;1.10;;
10446;SDS011;5271;44.422;26.092;2023-02-25T11:33:03;1.10;;;1.10;;
10446;SDS011;5271;44.422;26.092;2023-02-25T11:35:34;1.10;;;1.10;;
10446;SDS011;5271;44.422;26.092;2023-02-25T11:38:13;1.10;;;1.10;;
10446;SDS011;5271;44.422;26.092;2023-02-25T11:40:42;1.20;;;1.20;;
10446;SDS011;5271;44.422;26.092;2023-02-25T11:43:14;1.10;;;1.10;;
10446;SDS011;5271;44.422;26.092;2023-02-25T11:45:48;1.20;;;1.20;;
10446;SDS011;5271;44.422;26.092;2023-02-25T11:48:18;1.10;;;1.10;;
10446;SDS011;5271;44.422;26.092;2023-02-25T11:50:50;1.10;;;1.10;;
10446;SDS011;5271;44.422;26.092;2023-02-25T11:53:39;1.20;;;1.20;;
10446;SDS011;5271;44.422;26.092;2023-02-25T11:56:17;1.10;;;1.10;;
10446;SDS011;5271;44.422;26.092;2023-02-25T11:58:53;1.10;;;1.10;;
10446;SDS011;5271;44.422;26.092;2023-02-25T12:01:34;1.10;;;1.10;;
10446;SDS011;5271;44.422;26.092;2023-02-25T12:04:21;1.20;;;1.20;;
10446;SDS011;5271;44.422;26.092;2023-02-25T12:07:18;1.20;;;1.20;;
10446;SDS011;5271;44.422;26.092;2023-02-25T12:16:09;1.20;;;1.20;;
10446;SDS011;5271;44.422;26.092;2023-02-25T12:19:09;1.30;;;1.30;;
10446;SDS011;5271;44.422;26.092;2023-02-25T12:22:04;1.20;;;1.20;;
10446;SDS011;5271;44.422;26.092;2023-02-25T12:24:55;1.13;;;1.13;;
10446;SDS011;5271;44.422;26.092;2023-02-25T12:30:34;1.20;;;1.20;;
10446;SDS011;5271;44.422;26.092;2023-02-25T12:33:20;1.13;;;1.13;;
10446;SDS011;5271;44.422;26.092;2023-02-25T12:35:58;1.10;;;1.10;;
10446;SDS011;5271;44.422;26.092;2023-02-25T12:38:59;1.20;;;1.20;;
10446;SDS011;5271;44.422;26.092;2023-02-25T12:41:55;1.30;;;1.30;;
10446;SDS011;5271;44.422;26.092;2023-02-25T12:47:33;1.30;;;1.30;;
10446;SDS011;5271;44.422;26.092;2023-02-25T12:53:20;1.20;;;1.20;;
10446;SDS011;5271;44.422;26.092;2023-02-25T13:01:52;1.20;;;1.20;;
10446;SDS011;5271;44.422;26.092;2023-02-25T13:04:33;1.20;;;1.20;;
10446;SDS011;5271;44.422;26.092;2023-02-25T13:07:35;1.20;;;1.20;;
10446;SDS011;5271;44.422;26.092;2023-02-25T13:10:27;1.20;;;1.20;;
10446;SDS011;5271;44.422;26.092;2023-02-25T13:13:18;1.30;;;1.30;;
10446;SDS011;5271;44.422;26.092;2023-02-25T13:16:12;1.20;;;1.20;;
10446;SDS011;5271;44.422;26.092;2023-02-25T13:18:50;1.13;;;1.13;;
10446;SDS011;5271;44.422;26.092;2023-02-25T13:21:26;1.20;;;1.20;;
10446;SDS011;5271;44.422;26.092;2023-02-25T13:24:07;1.20;;;1.20;;
10446;SDS011;5271;44.422;26.092;2023-02-25T13:27:11;1.30;;;1.30;;
10446;SDS011;5271;44.422;26.092;2023-02-25T13:29:56;1.30;;;1.30;;
10446;SDS011;5271;44.422;26.092;2023-02-25T13:32:31;1.20;;;1.20;;
10446;SDS011;5271;44.422;26.092;2023-02-25T13:35:09;1.20;;;1.20;;
10446;SDS011;5271;44.422;26.092;2023-02-25T13:37:54;1.20;;;1.20;;
10446;SDS011;5271;44.422;26.092;2023-02-25T13:40:41;1.30;;;1.30;;
10446;SDS011;5271;44.422;26.092;2023-02-25T13:43:31;1.20;;;1.20;;
10446;SDS011;5271;44.422;26.092;2023-02-25T13:46:32;1.30;;;1.30;;
10446;SDS011;5271;44.422;26.092;2023-02-25T13:49:18;1.20;;;1.20;;
10446;SDS011;5271;44.422;26.092;2023-02-25T13:52:04;1.30;;;1.30;;
10446;SDS011;5271;44.422;26.092;2023-02-25T13:54:54;1.23;;;1.23;;
10446;SDS011;5271;44.422;26.092;2023-02-25T13:57:51;1.20;;;1.20;;
10446;SDS011;5271;44.422;26.092;2023-02-25T14:00:32;1.30;;;1.30;;
10446;SDS011;5271;44.422;26.092;2023-02-25T14:06:23;1.20;;;1.20;;
10446;SDS011;5271;44.422;26.092;2023-02-25T14:09:05;1.20;;;1.20;;
10446;SDS011;5271;44.422;26.092;2023-02-25T14:11:48;1.20;;;1.20;;
10446;SDS011;5271;44.422;26.092;2023-02-25T14:14:30;1.20;;;1.20;;
10446;SDS011;5271;44.422;26.092;2023-02-25T14:20:08;1.30;;;1.30;;
10446;SDS011;5271;44.422;26.092;2023-02-25T14:22:43;1.23;;;1.23;;
10446;SDS011;5271;44.422;26.092;2023-02-25T14:25:26;1.10;;;1.10;;
10446;SDS011;5271;44.422;26.092;2023-02-25T14:28:14;1.20;;;1.20;;
10446;SDS011;5271;44.422;26.092;2023-02-25T14:30:51;1.20;;;1.20;;
10446;SDS011;5271;44.422;26.092;2023-02-25T14:33:39;1.20;;;1.20;;
10446;SDS011;5271;44.422;26.092;2023-02-25T14:36:34;1.20;;;1.20;;
10446;SDS011;5271;44.422;26.092;2023-02-25T14:39:26;1.20;;;1.20;;
10446;SDS011;5271;44.422;26.092;2023-02-25T14:42:12;1.30;;;1.30;;
10446;SDS011;5271;44.422;26.092;2023-02-25T14:44:49;1.20;;;1.20;;
10446;SDS011;5271;44.422;26.092;2023-02-25T14:47:24;1.27;;;1.27;;
10446;SDS011;5271;44.422;26.092;2023-02-25T14:49:56;1.30;;;1.30;;
10446;SDS011;5271;44.422;26.092;2023-02-25T14:52:34;1.20;;;1.20;;
10446;SDS011;5271;44.422;26.092;2023-02-25T14:55:32;1.40;;;1.40;;
10446;SDS011;5271;44.422;26.092;2023-02-25T15:01:42;1.40;;;1.40;;
10446;SDS011;5271;44.422;26.092;2023-02-25T15:07:29;1.40;;;1.40;;
10446;SDS011;5271;44.422;26.092;2023-02-25T15:10:29;1.30;;;1.30;;
10446;SDS011;5271;44.422;26.092;2023-02-25T15:13:12;1.40;;;1.40;;
10446;SDS011;5271;44.422;26.092;2023-02-25T15:19:25;1.30;;;1.30;;
10446;SDS011;5271;44.422;26.092;2023-02-25T15:22:21;1.43;;;1.43;;
10446;SDS011;5271;44.422;26.092;2023-02-25T15:24:50;1.50;;;1.50;;
10446;SDS011;5271;44.422;26.092;2023-02-25T15:27:31;1.30;;;1.30;;
10446;SDS011;5271;44.422;26.092;2023-02-25T15:30:12;1.40;;;1.40;;
10446;SDS011;5271;44.422;26.092;2023-02-25T15:32:48;1.40;;;1.40;;
10446;SDS011;5271;44.422;26.092;2023-02-25T15:35:52;1.50;;;1.50;;
10446;SDS011;5271;44.422;26.092;2023-02-25T15:38:21;1.50;;;1.50;;
10446;SDS011;5271;44.422;26.092;2023-02-25T15:47:09;1.40;;;1.40;;
10446;SDS011;5271;44.422;26.092;2023-02-25T15:49:44;1.40;;;1.40;;
10446;SDS011;5271;44.422;26.092;2023-02-25T15:52:13;1.40;;;1.40;;
10446;SDS011;5271;44.422;26.092;2023-02-25T15:55:18;1.40;;;1.40;;
10446;SDS011;5271;44.422;26.092;2023-02-25T15:58:01;1.50;;;1.50;;
10446;SDS011;5271;44.422;26.092;2023-02-25T16:01:01;1.40;;;1.40;;
10446;SDS011;5271;44.422;26.092;2023-02-25T16:07:12;1.40;;;1.40;;